Aérodrome :
LOGIN :

S'inscrire | Disclaimer

   EN    FR    IT 

 










Légende :    VFR   VFR Marginal   IFR   IFR Intensif   IFR Très Intensif
Visi : 
Plafond : 
>= 8 km
>= 3000ft
5 à 8 km
1000 à 3000 ft
1500m à 5 km
500 à 1000 ft
800 à 1500m
200 à 500 ft
< 800m
< 200 ft
Symboles :   Orages  Brouillard  Fortes neiges  Fortes précipitations  Vent > 20 kt
SIGMETs :   Divers  Orages  Givrage  Turbulence  Onde Orograph.  Cendres Volcan.







- Altitude de l'aérodrome : 456 ft
- Code IATA : QPZ


LIMS - San Damiano Air Base Piacenza

DERNIER METAR :
  • 231755Z 13003KT CAVOK 05/M10 Q1033 RMK FEW FEW200 VIS MIN 9999 WIND THR30 11003KT BLU

METARs EXPIRÉS :
  • 231655Z 12010KT CAVOK 08/M13 Q1032 RMK FEW FEW200 VIS MIN 9999 WIND THR30 10008KT BLU
  • 231555Z 12013KT CAVOK 09/M14 Q1032

Prévision TAF périmée.
Pas de NOTAMs connus pour ce terrain.
2 SIGMETs publiés pour la FIR Milano (LIMM) :
 
Turbulence forte
LIMM SIGMET 5 VALID 231900/232230
LIMM MILANO FIR SEV TURB FCST SE OF LINE N4647 E01252 - N4446 E00645 FL280/380 MOV SE NC=
Turbulence forte
LIMM SIGMET 4 VALID 231500/231900
LIMM MILANO FIR SEV TURB FCST NW OF LINE N4632 E01347 - N4354 E00716 FL280/380 MOV SE NC=



MET'MAP, la Météo Aéronautique d'un coup d'oeil ! - Copyright ORBIFLY Décembre 2007 - Disclaimer

ORBIFLY MET'MAP TEAM :

Programmation & Développement : Alexandra Zaïnal
Conception & Développement : Baudouin d'Aumeries
Co-Programmation & Développement : Marc-Olivier Méhu
Soutien technique & logistique : Manuel Goepfert

Contact : metmap@orbifly.com




SOURCES & CREDITS :

   NOAA